Time;durP1;ratioP1;P1;durP2;ratioP2;P2;SDS_P1;SDS_P2;PMS_P1;PMS_P2;Temp;Humidity;BMP_temperature;BMP_pressure;BME280_temperature;BME280_humidity;BME280_pressure;Samples;Min_cycle;Max_cycle;Signal;HPM_P1;HPM_P2
2024/02/13 00:01:41;;;;;;;17.13;6.47;;;6.70;99.90;;;;;;7285177;19;20211;-78
2024/02/13 00:04:10;;;;;;;12.13;5.67;;;6.70;99.90;;;;;;7293278;19;20549;-78
2024/02/13 00:06:37;;;;;;;16.17;6.40;;;6.70;99.90;;;;;;7296988;19;20195;-78
2024/02/13 00:09:04;;;;;;;15.63;6.20;;;6.60;99.90;;;;;;7307396;19;20204;-78
2024/02/13 00:11:30;;;;;;;17.27;5.90;;;6.60;99.90;;;;;;7283912;19;21025;-79
2024/02/13 00:13:56;;;;;;;17.13;6.40;;;6.70;99.90;;;;;;7285809;19;20229;-79
2024/02/13 00:16:23;;;;;;;13.67;6.53;;;6.70;99.90;;;;;;7284561;19;20212;-79
2024/02/13 00:18:49;;;;;;;17.53;5.70;;;6.70;99.90;;;;;;7283855;19;20220;-79
2024/02/13 00:21:15;;;;;;;12.03;5.33;;;6.60;99.90;;;;;;7283930;19;20188;-79
2024/02/13 00:23:41;;;;;;;12.57;4.93;;;6.60;99.90;;;;;;7283499;19;20191;-78
2024/02/13 00:26:09;;;;;;;12.23;4.30;;;6.60;99.90;;;;;;7295545;19;20567;-79
2024/02/13 00:28:37;;;;;;;14.00;4.90;;;6.50;99.90;;;;;;7307162;19;20256;-79
2024/02/13 00:31:06;;;;;;;13.33;4.50;;;6.40;99.90;;;;;;7284092;19;20216;-78
2024/02/13 00:33:31;;;;;;;9.37;4.00;;;6.50;99.90;;;;;;7285433;19;20178;-78
2024/02/13 00:35:57;;;;;;;12.47;4.20;;;6.50;99.90;;;;;;7283339;19;20974;-79
2024/02/13 00:38:24;;;;;;;11.23;3.70;;;6.50;99.90;;;;;;7282985;19;20979;-78
2024/02/13 00:40:50;;;;;;;13.30;4.20;;;6.50;99.90;;;;;;7284970;19;20196;-79
2024/02/13 00:43:19;;;;;;;16.23;3.83;;;6.50;99.90;;;;;;7283860;19;20193;-77
2024/02/13 00:45:46;;;;;;;12.23;3.40;;;6.50;99.90;;;;;;7283414;19;20288;-79
2024/02/13 00:48:13;;;;;;;14.53;3.90;;;6.50;99.90;;;;;;7283384;19;20660;-78
2024/02/13 00:50:38;;;;;;;9.87;3.60;;;6.50;99.90;;;;;;7283026;19;20180;-77
2024/02/13 00:53:05;;;;;;;13.17;3.70;;;6.50;99.90;;;;;;7304555;19;20543;-79
2024/02/13 00:55:31;;;;;;;13.73;3.60;;;6.50;99.90;;;;;;7285857;19;20184;-79
2024/02/13 00:57:57;;;;;;;10.90;3.37;;;6.40;99.90;;;;;;7283938;19;20241;-79
2024/02/13 01:00:24;;;;;;;15.63;3.67;;;6.40;99.90;;;;;;7283128;19;20188;-78
2024/02/13 01:02:50;;;;;;;11.17;3.20;;;6.40;99.90;;;;;;7284294;19;20662;-78
2024/02/13 01:05:16;;;;;;;15.87;3.67;;;6.40;99.90;;;;;;7283689;19;20212;-78
2024/02/13 01:07:43;;;;;;;12.57;3.37;;;6.30;99.90;;;;;;7283236;19;20181;-79
2024/02/13 01:10:09;;;;;;;8.80;3.20;;;6.40;99.90;;;;;;7283834;19;20191;-78
2024/02/13 01:12:35;;;;;;;9.63;3.37;;;6.40;99.90;;;;;;7305740;19;20193;-78
2024/02/13 01:15:01;;;;;;;13.60;3.17;;;6.40;99.90;;;;;;7285816;19;20185;-79
2024/02/13 01:17:28;;;;;;;13.03;3.13;;;6.40;99.90;;;;;;7281494;19;20257;-78
2024/02/13 01:19:54;;;;;;;8.23;2.53;;;6.40;99.90;;;;;;7282567;19;20189;-79
2024/02/13 01:22:20;;;;;;;13.07;3.37;;;6.50;99.90;;;;;;7284016;19;20648;-79
2024/02/13 01:24:46;;;;;;;10.17;2.73;;;6.50;99.90;;;;;;7282360;19;20201;-79
2024/02/13 01:27:13;;;;;;;8.90;3.00;;;6.50;99.90;;;;;;7281953;19;20191;-77
2024/02/13 01:29:39;;;;;;;9.87;2.90;;;6.40;99.90;;;;;;7282263;19;20228;-77
2024/02/13 01:32:05;;;;;;;11.63;2.93;;;6.40;99.90;;;;;;7303738;19;20186;-78
2024/02/13 01:34:31;;;;;;;10.73;2.97;;;6.50;99.90;;;;;;7282754;19;20672;-78
2024/02/13 01:36:57;;;;;;;13.53;3.63;;;6.40;99.90;;;;;;7280718;19;20203;-78
2024/02/13 01:39:24;;;;;;;13.00;3.07;;;6.50;99.90;;;;;;7284750;19;20204;-77
2024/02/13 01:41:50;;;;;;;8.03;3.10;;;6.50;99.90;;;;;;7289324;19;20193;-78
2024/02/13 01:44:16;;;;;;;14.60;3.30;;;6.50;99.90;;;;;;7289258;19;20189;-78
2024/02/13 01:46:42;;;;;;;11.70;3.27;;;6.60;99.90;;;;;;7288242;19;20211;-76
2024/02/13 01:49:09;;;;;;;14.07;3.53;;;6.50;99.90;;;;;;7286294;19;20191;-78
2024/02/13 01:51:37;;;;;;;12.97;3.50;;;6.40;99.90;;;;;;7305023;19;20296;-79
2024/02/13 01:54:05;;;;;;;9.97;4.00;;;6.40;99.90;;;;;;7283803;19;20195;-79
2024/02/13 01:56:33;;;;;;;15.67;4.20;;;6.40;99.90;;;;;;7281498;19;20200;-78
2024/02/13 01:58:59;;;;;;;9.03;3.53;;;6.40;99.90;;;;;;7282090;19;20189;-79
2024/02/13 02:01:31;;;;;;;14.17;3.93;;;6.40;99.90;;;;;;7281141;19;20869;-78
2024/02/13 02:03:59;;;;;;;12.10;4.17;;;6.40;99.90;;;;;;7280382;19;20180;-78
2024/02/13 02:06:26;;;;;;;13.33;3.67;;;6.40;99.90;;;;;;7282522;19;20184;-78
2024/02/13 02:08:53;;;;;;;12.20;3.70;;;6.40;99.90;;;;;;7281135;19;20185;-78
2024/02/13 02:11:19;;;;;;;11.97;3.90;;;6.30;99.90;;;;;;7276150;19;20262;-78
2024/02/13 02:13:45;;;;;;;10.73;3.83;;;6.20;99.90;;;;;;7280957;19;20205;-79
2024/02/13 02:16:11;;;;;;;14.17;4.40;;;6.30;99.90;;;;;;7281493;19;20193;-78
2024/02/13 02:18:36;;;;;;;10.67;3.50;;;6.30;99.90;;;;;;7295882;19;20222;-77
2024/02/13 02:21:02;;;;;;;13.10;3.83;;;6.30;99.90;;;;;;7295716;19;20842;-78
2024/02/13 02:23:28;;;;;;;13.93;3.47;;;6.30;99.90;;;;;;7281087;19;20196;-78
2024/02/13 02:25:54;;;;;;;9.80;4.03;;;6.30;99.90;;;;;;7281361;19;20197;-79
2024/02/13 02:28:20;;;;;;;10.53;3.17;;;6.30;99.90;;;;;;7281021;19;20220;-77
2024/02/13 02:30:46;;;;;;;12.43;3.90;;;6.30;99.90;;;;;;7288219;19;20229;-78
2024/02/13 02:33:14;;;;;;;14.93;4.10;;;6.30;99.90;;;;;;7288053;19;20207;-77
2024/02/13 02:35:41;;;;;;;13.33;3.50;;;6.30;99.90;;;;;;7287796;19;20208;-77
2024/02/13 02:38:09;;;;;;;11.63;3.30;;;6.30;99.90;;;;;;7297192;19;20226;-76
2024/02/13 02:40:36;;;;;;;11.60;3.27;;;6.20;99.90;;;;;;7309108;19;20220;-77
2024/02/13 02:43:02;;;;;;;13.93;3.80;;;6.30;99.90;;;;;;7287616;19;20193;-78
2024/02/13 02:45:28;;;;;;;11.40;3.17;;;6.20;99.90;;;;;;7286262;19;20260;-78
2024/02/13 02:47:54;;;;;;;9.47;2.80;;;6.10;99.90;;;;;;7288980;19;20190;-78
2024/02/13 02:50:20;;;;;;;9.87;2.93;;;6.10;99.90;;;;;;7285733;19;20193;-78
2024/02/13 02:52:46;;;;;;;11.70;2.93;;;6.00;99.90;;;;;;7285669;19;20660;-78
2024/02/13 02:55:11;;;;;;;15.03;3.30;;;6.00;99.90;;;;;;7285409;19;20197;-78
2024/02/13 02:57:40;;;;;;;10.20;3.03;;;6.10;99.90;;;;;;7291033;19;20197;-77
2024/02/13 03:00:10;;;;;;;11.73;3.00;;;6.10;99.90;;;;;;7307242;19;20642;-76
2024/02/13 03:02:40;;;;;;;16.07;3.40;;;6.10;99.90;;;;;;7310280;19;20217;-78
2024/02/13 03:05:07;;;;;;;12.77;3.33;;;6.10;99.90;;;;;;7286899;19;20257;-78
2024/02/13 03:07:33;;;;;;;12.90;3.30;;;6.10;99.90;;;;;;7286031;19;20193;-78
2024/02/13 03:10:00;;;;;;;14.77;3.30;;;6.10;99.90;;;;;;7285558;19;20208;-77
2024/02/13 03:12:26;;;;;;;16.43;3.33;;;6.10;99.90;;;;;;7285656;19;20192;-78
2024/02/13 03:14:55;;;;;;;16.27;3.50;;;6.10;99.90;;;;;;7285708;19;20241;-79
2024/02/13 03:17:22;;;;;;;10.73;3.33;;;6.20;99.90;;;;;;7285761;19;20223;-78
2024/02/13 03:19:48;;;;;;;15.10;3.50;;;6.10;99.90;;;;;;7283970;19;20196;-79
2024/02/13 03:22:16;;;;;;;14.40;3.97;;;6.00;99.90;;;;;;7284901;19;20225;-78
2024/02/13 03:24:41;;;;;;;15.87;3.87;;;6.10;99.90;;;;;;7282476;19;20196;-78
2024/02/13 03:27:07;;;;;;;15.00;3.43;;;6.10;99.90;;;;;;7296736;19;20207;-77
2024/02/13 03:29:33;;;;;;;15.47;4.07;;;6.10;99.90;;;;;;7306236;19;20622;-78
2024/02/13 03:31:59;;;;;;;12.83;3.73;;;6.10;99.90;;;;;;7285483;19;20676;-78
2024/02/13 03:34:24;;;;;;;16.53;4.20;;;6.10;99.90;;;;;;7284728;19;20973;-78
2024/02/13 03:36:50;;;;;;;16.57;4.10;;;6.20;99.90;;;;;;7285404;19;20208;-78
2024/02/13 03:39:16;;;;;;;17.10;4.93;;;6.30;99.90;;;;;;7284764;19;20197;-78
2024/02/13 03:41:43;;;;;;;16.23;4.30;;;6.30;99.90;;;;;;7282658;19;20519;-78
2024/02/13 03:44:11;;;;;;;15.80;4.40;;;6.10;99.90;;;;;;7285462;19;20196;-78
2024/02/13 03:46:42;;;;;;;17.50;4.53;;;6.10;99.90;;;;;;7304915;19;20185;-78
2024/02/13 03:49:11;;;;;;;13.57;4.47;;;6.10;99.90;;;;;;7293127;19;20193;-78
2024/02/13 03:51:40;;;;;;;16.40;4.50;;;5.90;99.90;;;;;;7304262;19;20697;-76
2024/02/13 03:54:09;;;;;;;20.13;4.73;;;6.00;99.90;;;;;;7308712;19;20569;-78
2024/02/13 03:56:37;;;;;;;16.73;4.27;;;6.00;99.90;;;;;;7285974;19;20206;-78
2024/02/13 03:59:08;;;;;;;18.07;3.87;;;6.00;99.90;;;;;;7284553;19;20573;-78
2024/02/13 04:01:35;;;;;;;17.27;4.20;;;6.00;99.90;;;;;;7285460;19;20254;-78
2024/02/13 04:04:01;;;;;;;17.07;4.00;;;6.00;99.90;;;;;;7283706;19;20193;-77
2024/02/13 04:06:27;;;;;;;14.63;3.70;;;6.10;99.90;;;;;;7285235;19;20631;-78
2024/02/13 04:08:53;;;;;;;18.07;4.40;;;6.10;99.90;;;;;;7284662;19;20193;-78
2024/02/13 04:11:20;;;;;;;20.43;4.10;;;6.00;99.90;;;;;;7283766;19;20194;-78
2024/02/13 04:13:46;;;;;;;14.20;3.93;;;6.10;99.90;;;;;;7286120;19;20207;-78
2024/02/13 04:16:13;;;;;;;18.03;4.10;;;6.10;99.90;;;;;;7283284;19;20246;-78
2024/02/13 04:18:40;;;;;;;15.60;3.63;;;6.10;99.90;;;;;;7284839;19;20210;-78
2024/02/13 04:21:05;;;;;;;16.77;4.37;;;6.10;99.90;;;;;;7308064;19;20211;-79
2024/02/13 04:23:32;;;;;;;17.13;4.07;;;6.10;99.90;;;;;;7284591;19;20189;-79
2024/02/13 04:25:58;;;;;;;19.27;4.17;;;6.10;99.90;;;;;;7282832;19;20186;-79
2024/02/13 04:28:23;;;;;;;19.17;4.27;;;6.10;99.90;;;;;;7285283;19;20197;-79
2024/02/13 04:30:49;;;;;;;22.13;4.67;;;6.00;99.90;;;;;;7281613;19;20715;-78
2024/02/13 04:33:15;;;;;;;23.17;4.53;;;5.90;99.90;;;;;;7284630;19;20197;-78
2024/02/13 04:35:42;;;;;;;15.23;4.37;;;6.00;99.90;;;;;;7283622;19;20200;-78
2024/02/13 04:38:09;;;;;;;19.87;4.63;;;6.00;99.90;;;;;;7293351;19;20184;-78
2024/02/13 04:40:35;;;;;;;19.03;4.67;;;6.00;99.90;;;;;;7306535;19;20198;-79
2024/02/13 04:43:01;;;;;;;19.77;5.00;;;6.00;99.90;;;;;;7283999;19;20181;-79
2024/02/13 04:45:27;;;;;;;20.47;4.60;;;5.90;99.90;;;;;;7282710;19;20202;-79
2024/02/13 04:47:53;;;;;;;19.67;4.50;;;5.90;99.90;;;;;;7284489;19;20194;-78
2024/02/13 04:50:19;;;;;;;18.43;5.10;;;6.00;99.90;;;;;;7283348;19;20186;-79
2024/02/13 04:52:46;;;;;;;20.80;5.17;;;5.90;99.90;;;;;;7280097;19;20195;-78
2024/02/13 04:55:11;;;;;;;26.10;6.20;;;5.90;99.90;;;;;;7291120;19;20182;-79
2024/02/13 04:57:38;;;;;;;26.13;6.03;;;5.90;99.90;;;;;;7312654;19;20192;-77
2024/02/13 05:00:18;;;;;;;27.57;7.00;;;5.80;99.90;;;;;;7328766;19;20214;-78
2024/02/13 05:02:49;;;;;;;30.57;7.20;;;5.90;99.90;;;;;;7194050;19;2004746;-78
2024/02/13 05:08:00;;;;;;;27.60;6.87;;;5.70;99.90;;;;;;7284691;19;20205;-78
2024/02/13 05:10:25;;;;;;;26.73;7.67;;;5.70;99.90;;;;;;7284159;19;20834;-79
2024/02/13 05:12:52;;;;;;;31.77;8.27;;;5.80;99.90;;;;;;7283418;19;20207;-78
2024/02/13 05:15:20;;;;;;;31.17;7.70;;;5.80;99.90;;;;;;7283679;19;20184;-78
2024/02/13 05:17:46;;;;;;;34.27;7.73;;;5.90;99.90;;;;;;7281508;19;20203;-79
2024/02/13 05:20:12;;;;;;;26.77;7.73;;;5.80;99.90;;;;;;7284153;19;20184;-78
2024/02/13 05:22:38;;;;;;;25.87;6.50;;;5.80;99.90;;;;;;7285258;19;20215;-78
2024/02/13 05:25:04;;;;;;;30.00;7.23;;;5.80;99.90;;;;;;7305821;19;20664;-78
2024/02/13 05:27:31;;;;;;;25.97;7.37;;;5.90;99.90;;;;;;7283270;19;20233;-78
2024/02/13 05:29:59;;;;;;;29.13;6.93;;;5.80;99.90;;;;;;7281491;19;20207;-78
2024/02/13 05:32:26;;;;;;;26.00;6.93;;;5.80;99.90;;;;;;7283234;19;20835;-78
2024/02/13 05:34:53;;;;;;;26.50;7.17;;;5.80;99.90;;;;;;7282743;19;20193;-79
2024/02/13 05:37:20;;;;;;;31.10;7.13;;;5.80;99.90;;;;;;7281063;19;20204;-78
2024/02/13 05:39:50;;;;;;;31.83;7.53;;;5.90;99.90;;;;;;7283749;19;20185;-78
2024/02/13 05:42:18;;;;;;;29.47;6.67;;;5.90;99.90;;;;;;7282401;19;20185;-78
2024/02/13 05:44:44;;;;;;;29.20;7.10;;;5.80;99.90;;;;;;7281225;19;20185;-79
2024/02/13 05:47:11;;;;;;;26.60;7.17;;;5.80;99.90;;;;;;7281732;19;20190;-79
2024/02/13 05:49:36;;;;;;;26.20;7.27;;;5.70;99.90;;;;;;7304541;19;20181;-79
2024/02/13 05:52:02;;;;;;;27.97;6.93;;;5.70;99.90;;;;;;7282260;19;20650;-78
2024/02/13 05:54:28;;;;;;;29.90;7.40;;;5.80;99.90;;;;;;7283238;19;20530;-78
2024/02/13 05:56:54;;;;;;;28.33;7.03;;;5.80;99.90;;;;;;7280776;19;20184;-79
2024/02/13 05:59:25;;;;;;;24.37;6.70;;;5.90;99.90;;;;;;7281473;19;20296;-78
2024/02/13 06:01:54;;;;;;;30.00;7.57;;;5.80;99.90;;;;;;7282088;19;20260;-79
2024/02/13 06:04:21;;;;;;;30.13;6.83;;;5.80;99.90;;;;;;7284426;19;20873;-79
2024/02/13 06:06:47;;;;;;;25.67;6.47;;;5.80;99.90;;;;;;7287068;19;20306;-78
2024/02/13 06:09:20;;;;;;;30.50;6.00;;;5.70;99.90;;;;;;7289114;19;20257;-79
2024/02/13 06:11:49;;;;;;;24.93;6.60;;;5.70;99.90;;;;;;7287642;19;20188;-79
2024/02/13 06:14:15;;;;;;;20.57;5.90;;;5.60;99.90;;;;;;7288113;19;20218;-79
2024/02/13 06:16:40;;;;;;;29.50;6.50;;;5.60;99.90;;;;;;7289035;19;20181;-79
2024/02/13 06:19:06;;;;;;;21.13;5.80;;;5.60;99.90;;;;;;7310814;19;20192;-79
2024/02/13 06:21:32;;;;;;;20.43;5.97;;;5.60;99.90;;;;;;7288955;19;20190;-79
2024/02/13 06:23:58;;;;;;;21.47;5.67;;;5.60;99.90;;;;;;7287685;19;20185;-79
2024/02/13 06:26:24;;;;;;;23.47;6.80;;;5.50;99.90;;;;;;7287634;19;20188;-79
2024/02/13 06:28:51;;;;;;;23.43;6.80;;;5.60;99.90;;;;;;7287956;19;20185;-79
2024/02/13 06:31:17;;;;;;;25.43;6.30;;;5.60;99.90;;;;;;7287705;19;20269;-78
2024/02/13 06:33:43;;;;;;;22.70;5.90;;;5.70;99.90;;;;;;7286704;19;20188;-78
2024/02/13 06:36:10;;;;;;;23.03;6.80;;;5.60;99.90;;;;;;7288002;19;20243;-78
2024/02/13 06:38:36;;;;;;;22.17;6.70;;;5.70;99.90;;;;;;7309492;19;20189;-78
2024/02/13 06:41:05;;;;;;;24.47;7.33;;;5.80;99.90;;;;;;7287762;19;20185;-78
2024/02/13 06:43:37;;;;;;;27.13;7.13;;;5.80;99.90;;;;;;7286936;19;20317;-78
2024/02/13 06:46:03;;;;;;;25.30;7.37;;;5.80;99.90;;;;;;7285620;19;20194;-78
2024/02/13 06:48:30;;;;;;;27.47;8.20;;;5.90;99.90;;;;;;7282656;19;21085;-79
2024/02/13 06:50:56;;;;;;;31.23;8.83;;;5.90;99.90;;;;;;7283589;19;20713;-78
2024/02/13 06:53:22;;;;;;;29.53;8.80;;;5.90;99.90;;;;;;7285107;19;20197;-78
2024/02/13 06:55:48;;;;;;;33.03;8.80;;;5.80;99.90;;;;;;7284896;19;20264;-78
2024/02/13 06:58:16;;;;;;;33.97;8.73;;;5.90;99.90;;;;;;7286193;19;20203;-78
2024/02/13 07:00:42;;;;;;;34.50;9.07;;;5.90;99.90;;;;;;7285175;19;20249;-78
2024/02/13 07:03:08;;;;;;;30.80;8.90;;;5.90;99.90;;;;;;7300015;19;20192;-78
2024/02/13 07:05:34;;;;;;;34.80;9.70;;;5.90;99.90;;;;;;7304512;19;20182;-78
2024/02/13 07:08:00;;;;;;;32.80;9.30;;;6.00;99.90;;;;;;7285756;19;20194;-79
2024/02/13 07:10:26;;;;;;;28.90;9.20;;;6.10;99.90;;;;;;7285594;19;20819;-79
2024/02/13 07:12:52;;;;;;;34.63;8.80;;;6.20;99.90;;;;;;7287134;19;20190;-80
2024/02/13 07:15:18;;;;;;;42.43;10.27;;;6.30;99.90;;;;;;7285348;19;20775;-81
2024/02/13 07:17:43;;;;;;;29.00;9.43;;;6.30;99.90;;;;;;7286037;19;20227;-80
2024/02/13 07:20:13;;;;;;;29.77;9.23;;;6.30;99.90;;;;;;7291009;19;20206;-80
2024/02/13 07:22:39;;;;;;;30.17;9.27;;;6.40;99.90;;;;;;7298342;19;20690;-80
2024/02/13 07:25:08;;;;;;;34.53;9.17;;;6.40;99.90;;;;;;7308264;19;20681;-80
2024/02/13 07:27:35;;;;;;;29.23;8.93;;;6.50;99.90;;;;;;7286036;19;20201;-80
2024/02/13 07:30:02;;;;;;;28.57;9.00;;;6.50;99.90;;;;;;7287030;19;20197;-81
2024/02/13 07:32:27;;;;;;;29.00;8.87;;;6.50;99.90;;;;;;7283937;19;21105;-81
2024/02/13 07:34:53;;;;;;;24.63;8.07;;;6.50;99.90;;;;;;7285373;19;20194;-81
2024/02/13 07:37:19;;;;;;;26.30;8.10;;;6.50;99.90;;;;;;7285037;19;20191;-81
2024/02/13 07:39:45;;;;;;;22.23;6.93;;;6.50;99.90;;;;;;7287971;19;20529;-81
2024/02/13 07:42:11;;;;;;;25.90;7.50;;;6.50;99.90;;;;;;7287244;19;20198;-80
2024/02/13 07:44:37;;;;;;;23.43;7.23;;;6.50;99.90;;;;;;7308242;19;20308;-80
2024/02/13 07:47:03;;;;;;;23.07;7.33;;;6.60;99.90;;;;;;7285933;19;20688;-80
2024/02/13 07:49:32;;;;;;;24.23;7.20;;;6.60;99.90;;;;;;7285912;19;20184;-80
2024/02/13 07:51:57;;;;;;;23.07;6.93;;;6.60;99.90;;;;;;7285671;19;22607;-81
2024/02/13 07:54:28;;;;;;;19.63;7.13;;;6.60;99.90;;;;;;7285671;19;20200;-80
2024/02/13 07:56:54;;;;;;;18.97;7.17;;;6.60;99.90;;;;;;7285581;19;20193;-80
2024/02/13 07:59:20;;;;;;;21.43;6.93;;;6.60;99.90;;;;;;7286581;19;20540;-82
2024/02/13 08:01:46;;;;;;;20.93;7.47;;;6.70;99.90;;;;;;7285079;19;20211;-79
2024/02/13 08:04:12;;;;;;;20.17;6.97;;;6.90;99.90;;;;;;7285656;19;20268;-79
2024/02/13 08:06:38;;;;;;;19.33;6.63;;;7.00;99.90;;;;;;7314451;19;20198;-79
2024/02/13 08:09:04;;;;;;;19.67;7.00;;;6.90;99.90;;;;;;7299408;19;20193;-79
2024/02/13 08:11:30;;;;;;;18.17;7.23;;;7.00;99.90;;;;;;7300604;19;20204;-79
2024/02/13 08:13:56;;;;;;;22.37;7.27;;;7.10;99.90;;;;;;7306714;19;20222;-78
2024/02/13 08:16:22;;;;;;;22.23;7.03;;;7.00;99.90;;;;;;7293252;19;20250;-78
2024/02/13 08:18:51;;;;;;;22.70;7.17;;;6.90;99.90;;;;;;7283851;19;20580;-79
2024/02/13 08:21:17;;;;;;;18.97;6.70;;;7.00;99.90;;;;;;7283525;19;20195;-79
2024/02/13 08:23:43;;;;;;;19.77;5.90;;;7.10;99.90;;;;;;7285073;19;20193;-79
2024/02/13 08:26:09;;;;;;;20.43;6.60;;;7.20;99.90;;;;;;7292931;19;20198;-78
2024/02/13 08:28:37;;;;;;;18.53;6.10;;;7.30;99.90;;;;;;7305786;19;20195;-79
2024/02/13 08:31:04;;;;;;;16.33;6.07;;;7.40;99.90;;;;;;7284593;19;20196;-79
2024/02/13 08:33:30;;;;;;;15.13;5.70;;;7.60;99.90;;;;;;7284510;19;20659;-80
2024/02/13 08:35:57;;;;;;;17.67;5.90;;;7.80;99.90;;;;;;7285996;19;20185;-80
2024/02/13 08:38:23;;;;;;;17.80;6.23;;;7.90;99.90;;;;;;7285170;19;20193;-80
2024/02/13 08:40:49;;;;;;;18.33;5.90;;;7.90;99.90;;;;;;7286210;19;20215;-79
2024/02/13 08:43:14;;;;;;;16.13;5.23;;;7.90;99.90;;;;;;7283868;19;20205;-79
2024/02/13 08:45:40;;;;;;;18.50;5.37;;;8.00;99.90;;;;;;7283644;19;20644;-79
2024/02/13 08:48:06;;;;;;;17.47;5.23;;;8.10;99.90;;;;;;7306203;19;20198;-80
2024/02/13 08:50:32;;;;;;;14.17;4.80;;;8.10;99.90;;;;;;7283347;19;20193;-80
2024/02/13 08:52:58;;;;;;;15.33;5.07;;;8.10;99.90;;;;;;7283329;19;20210;-80
2024/02/13 08:55:25;;;;;;;15.33;5.23;;;8.00;99.90;;;;;;7284464;19;20190;-80
2024/02/13 08:57:54;;;;;;;12.17;5.10;;;8.10;99.90;;;;;;7283551;19;20311;-80
2024/02/13 09:00:20;;;;;;;12.50;4.60;;;8.20;99.90;;;;;;7283703;19;20293;-80
2024/02/13 09:02:47;;;;;;;14.60;5.00;;;8.10;99.90;;;;;;7282736;19;20189;-79
2024/02/13 09:05:14;;;;;;;10.37;4.33;;;8.10;99.90;;;;;;7282262;19;20204;-79
2024/02/13 09:07:41;;;;;;;9.07;4.43;;;8.10;99.90;;;;;;7284131;19;20719;-79
2024/02/13 09:10:12;;;;;;;11.93;5.27;;;8.10;99.90;;;;;;7304532;19;20201;-79
2024/02/13 09:12:45;;;;;;;14.20;4.30;;;8.20;99.90;;;;;;7283541;19;20268;-80
2024/02/13 09:15:12;;;;;;;14.23;4.30;;;8.30;99.90;;;;;;7262008;19;20711;-79
2024/02/13 09:17:46;;;;;;;12.40;4.43;;;8.30;99.90;;;;;;7302610;19;20201;-76
2024/02/13 09:20:16;;;;;;;10.80;4.17;;;8.20;99.90;;;;;;7284644;19;20200;-79
2024/02/13 09:22:44;;;;;;;11.20;4.30;;;8.30;99.90;;;;;;7282386;19;20197;-78
2024/02/13 09:25:14;;;;;;;11.23;4.67;;;8.20;99.90;;;;;;7289629;19;20199;-78
2024/02/13 09:27:41;;;;;;;15.23;4.30;;;8.30;99.90;;;;;;7283641;19;20222;-79
2024/02/13 09:30:10;;;;;;;12.97;4.07;;;8.40;99.90;;;;;;7306618;19;20201;-79
2024/02/13 09:32:37;;;;;;;9.97;3.80;;;8.50;99.90;;;;;;7283393;19;20645;-79
2024/02/13 09:35:07;;;;;;;12.87;4.03;;;8.60;99.90;;;;;;7281549;19;20182;-79
2024/02/13 09:37:42;;;;;;;12.47;3.73;;;8.70;99.90;;;;;;7283397;19;20901;-79
2024/02/13 09:40:15;;;;;;;13.77;3.97;;;8.70;99.90;;;;;;7288114;19;20186;-79
2024/02/13 09:42:42;;;;;;;13.23;3.70;;;8.90;99.90;;;;;;7267507;19;20196;-79
2024/02/13 09:45:09;;;;;;;12.33;3.50;;;8.90;99.90;;;;;;7311787;19;20185;-79
2024/02/13 09:47:37;;;;;;;7.93;3.20;;;8.90;99.90;;;;;;7291388;19;20190;-79
2024/02/13 09:50:14;;;;;;;10.60;2.90;;;9.00;99.90;;;;;;7289448;19;20193;-80
2024/02/13 09:52:51;;;;;;;13.93;3.03;;;9.00;99.90;;;;;;7270575;19;20279;-79
2024/02/13 09:55:18;;;;;;;14.77;3.00;;;9.10;99.90;;;;;;7287725;19;20190;-80
2024/02/13 09:57:47;;;;;;;11.10;3.27;;;9.10;99.90;;;;;;7288524;19;20237;-78
2024/02/13 10:00:18;;;;;;;12.53;2.77;;;9.20;99.90;;;;;;7288419;19;20646;-80
2024/02/13 10:02:45;;;;;;;9.33;2.80;;;9.20;99.90;;;;;;7289094;19;20222;-80
2024/02/13 10:05:11;;;;;;;10.23;2.57;;;9.30;99.90;;;;;;7287450;19;20192;-80
2024/02/13 10:07:38;;;;;;;9.53;2.37;;;9.50;99.90;;;;;;7311515;19;20568;-81
2024/02/13 10:10:12;;;;;;;6.93;2.70;;;9.60;99.90;;;;;;7288913;19;20196;-80
2024/02/13 10:12:53;;;;;;;7.63;2.30;;;9.80;99.90;;;;;;7287768;19;20203;-80
2024/02/13 10:15:20;;;;;;;8.03;2.63;;;9.80;99.90;;;;;;7187195;19;2004503;-80
2024/02/13 10:17:45;;;;;;;4.83;2.47;;;10.00;99.90;;;;;;7288541;19;20207;-80
2024/02/13 10:20:14;;;;;;;7.20;2.33;;;10.50;99.90;;;;;;7287638;19;20187;-80
2024/02/13 10:22:45;;;;;;;5.43;2.30;;;11.60;99.90;;;;;;7297687;19;20538;-79
2024/02/13 10:25:11;;;;;;;7.80;2.33;;;13.30;99.90;;;;;;7288364;19;20192;-78
2024/02/13 10:27:37;;;;;;;9.40;2.27;;;13.80;99.90;;;;;;7310591;19;20985;-79
2024/02/13 10:30:06;;;;;;;7.60;2.27;;;14.30;99.90;;;;;;7288332;19;20186;-80
2024/02/13 10:32:38;;;;;;;6.83;2.30;;;14.70;99.90;;;;;;7286894;19;20190;-81
2024/02/13 10:35:08;;;;;;;6.23;2.27;;;15.50;99.90;;;;;;7288989;19;20246;-79
2024/02/13 10:37:34;;;;;;;7.07;1.90;;;16.00;99.90;;;;;;7288918;19;20203;-80
2024/02/13 10:40:03;;;;;;;7.73;1.70;;;16.40;99.90;;;;;;7288401;19;20188;-80
2024/02/13 10:42:37;;;;;;;9.13;1.90;;;17.40;99.90;;;;;;7289091;19;20221;-80
2024/02/13 10:45:09;;;;;;;7.67;2.10;;;18.30;99.90;;;;;;7285922;19;20669;-81
2024/02/13 10:47:40;;;;;;;4.80;1.80;;;19.40;99.90;;;;;;7290013;19;20185;-81
2024/02/13 10:50:08;;;;;;;4.77;1.80;;;19.10;99.90;;;;;;7287371;19;20185;-81
2024/02/13 10:52:35;;;;;;;6.10;2.13;;;19.40;99.90;;;;;;7285581;19;20181;-82
2024/02/13 10:55:06;;;;;;;9.33;2.30;;;19.00;99.80;;;;;;7286878;19;20222;-81
2024/02/13 10:57:36;;;;;;;8.47;2.27;;;19.40;99.50;;;;;;7287304;19;20196;-81
2024/02/13 11:00:10;;;;;;;6.73;1.83;;;19.90;99.00;;;;;;7286971;19;20719;-81
2024/02/13 11:02:37;;;;;;;7.27;1.83;;;20.00;96.70;;;;;;7287399;19;20201;-81
2024/02/13 11:05:09;;;;;;;6.97;1.97;;;18.90;97.50;;;;;;7285286;19;20282;-81
2024/02/13 11:07:36;;;;;;;6.03;1.90;;;18.40;99.90;;;;;;7288665;19;20189;-81
2024/02/13 11:10:06;;;;;;;7.67;2.77;;;17.70;99.90;;;;;;7287034;19;20184;-81
2024/02/13 11:12:35;;;;;;;9.77;2.93;;;17.20;99.90;;;;;;7285376;19;20208;-81
2024/02/13 11:15:17;;;;;;;8.13;2.63;;;16.90;99.90;;;;;;7289623;19;20199;-81
2024/02/13 11:17:57;;;;;;;8.97;2.33;;;16.80;99.90;;;;;;7270315;19;20188;-80
2024/02/13 11:20:29;;;;;;;11.37;2.63;;;17.40;99.90;;;;;;7294050;19;20183;-81
2024/02/13 11:22:57;;;;;;;10.40;2.50;;;17.40;99.90;;;;;;7290992;19;20279;-80
2024/02/13 11:25:27;;;;;;;7.27;2.23;;;16.70;99.90;;;;;;7287553;19;20211;-81
2024/02/13 11:27:57;;;;;;;6.43;2.43;;;16.00;99.90;;;;;;7288552;19;20243;-81
2024/02/13 11:30:24;;;;;;;7.00;2.07;;;15.30;99.90;;;;;;7285940;19;20667;-81
2024/02/13 11:32:58;;;;;;;9.23;2.67;;;15.00;99.90;;;;;;7284069;19;20251;-80
2024/02/13 11:35:29;;;;;;;10.57;2.70;;;14.50;99.90;;;;;;7284511;19;20199;-81
2024/02/13 11:37:57;;;;;;;8.40;2.53;;;14.70;99.90;;;;;;7281881;19;20196;-81
2024/02/13 11:40:23;;;;;;;10.23;2.50;;;14.10;99.90;;;;;;7280949;19;20195;-82
2024/02/13 11:42:49;;;;;;;11.27;2.50;;;13.90;99.90;;;;;;7284005;19;20347;-80
2024/02/13 11:45:24;;;;;;;9.43;2.60;;;14.00;99.90;;;;;;7285285;19;20191;-81
2024/02/13 11:47:50;;;;;;;9.03;2.57;;;14.60;99.90;;;;;;7284285;19;20191;-80
2024/02/13 11:50:19;;;;;;;4.83;1.97;;;15.70;99.90;;;;;;7285716;19;20195;-80
2024/02/13 11:52:47;;;;;;;8.90;2.20;;;16.10;99.90;;;;;;7286394;19;20197;-80
2024/02/13 11:55:13;;;;;;;7.37;2.40;;;16.20;99.90;;;;;;7284334;19;20724;-80
2024/02/13 11:57:46;;;;;;;5.80;1.90;;;16.90;99.90;;;;;;7299254;19;20191;-80
2024/02/13 12:00:21;;;;;;;5.27;1.77;;;16.20;99.90;;;;;;7286741;19;20191;-80
2024/02/13 12:02:53;;;;;;;7.93;1.87;;;16.20;99.90;;;;;;7283818;19;20212;-80
2024/02/13 12:05:24;;;;;;;3.87;1.70;;;15.80;99.90;;;;;;7286471;19;20193;-80
2024/02/13 12:07:51;;;;;;;7.70;1.97;;;15.60;99.90;;;;;;7284184;19;20544;-80
2024/02/13 12:10:18;;;;;;;6.60;2.03;;;15.40;99.90;;;;;;7286092;19;20190;-80
2024/02/13 12:12:44;;;;;;;6.67;2.03;;;14.80;99.90;;;;;;7285871;19;20192;-81
2024/02/13 12:15:13;;;;;;;6.57;2.10;;;14.50;99.90;;;;;;7292591;19;20196;-79
2024/02/13 12:17:39;;;;;;;7.53;2.10;;;14.30;99.90;;;;;;7301888;19;20194;-79
2024/02/13 12:20:18;;;;;;;6.87;2.13;;;14.50;99.90;;;;;;7303197;19;20650;-81
2024/02/13 12:22:45;;;;;;;6.87;2.10;;;14.00;99.90;;;;;;7180823;19;2004799;-80
2024/02/13 12:25:10;;;;;;;9.90;2.43;;;13.80;99.90;;;;;;7287414;19;20187;-80
2024/02/13 12:27:36;;;;;;;7.73;2.07;;;13.80;99.90;;;;;;7303232;19;20703;-82
2024/02/13 12:30:03;;;;;;;6.40;2.10;;;14.00;99.90;;;;;;7285389;19;20187;-81
2024/02/13 12:32:34;;;;;;;9.13;2.20;;;14.00;99.90;;;;;;7281534;19;20707;-80
2024/02/13 12:35:11;;;;;;;5.23;1.80;;;13.90;99.90;;;;;;7284331;19;20195;-80
2024/02/13 12:37:40;;;;;;;7.93;2.17;;;14.10;99.90;;;;;;7283559;19;20668;-80
2024/02/13 12:40:16;;;;;;;3.70;1.80;;;14.10;99.90;;;;;;7285807;19;20192;-80
2024/02/13 12:42:43;;;;;;;6.40;2.10;;;14.00;99.90;;;;;;7261216;19;20207;-80
2024/02/13 12:45:09;;;;;;;8.13;2.10;;;14.00;99.90;;;;;;7302992;19;20189;-78
2024/02/13 12:47:35;;;;;;;7.13;2.60;;;14.20;99.90;;;;;;7301420;19;20189;-81
2024/02/13 12:50:02;;;;;;;5.87;2.13;;;14.20;99.90;;;;;;7285032;19;20201;-80
2024/02/13 12:52:29;;;;;;;9.77;2.43;;;14.20;99.90;;;;;;7281777;19;20204;-80